createdAt,value
2023-01-02T00:00:11.416Z,0.70
2023-01-02T00:02:41.067Z,0.53
2023-01-02T00:05:10.796Z,0.70
2023-01-02T00:07:40.337Z,0.50
2023-01-02T00:10:09.914Z,0.40
2023-01-02T00:12:39.578Z,0.53
2023-01-02T00:15:09.341Z,0.60
2023-01-02T00:17:38.843Z,0.90
2023-01-02T00:20:08.921Z,0.60
2023-01-02T00:22:38.383Z,0.50
2023-01-02T00:25:08.747Z,0.60
2023-01-02T00:27:38.210Z,0.57
2023-01-02T00:30:08.307Z,1.00
2023-01-02T00:32:37.773Z,0.70
2023-01-02T00:35:08.008Z,0.80
2023-01-02T00:37:38.531Z,0.50
2023-01-02T00:40:10.618Z,0.87
2023-01-02T00:42:40.747Z,0.87
2023-01-02T00:45:11.852Z,0.80
2023-01-02T00:47:41.619Z,1.10
2023-01-02T00:50:11.132Z,1.10
2023-01-02T00:52:40.611Z,1.07
2023-01-02T00:55:10.575Z,1.10
2023-01-02T00:57:40.026Z,1.07
2023-01-02T01:00:10.203Z,1.53
2023-01-02T01:02:39.846Z,1.80
2023-01-02T01:05:10.075Z,1.10
2023-01-02T01:07:39.544Z,2.33
2023-01-02T01:10:09.433Z,2.30
2023-01-02T01:12:38.904Z,3.20
2023-01-02T01:15:09.188Z,3.23
2023-01-02T01:17:38.727Z,3.03
2023-01-02T01:20:09.233Z,2.40
2023-01-02T01:22:38.691Z,2.30
2023-01-02T01:25:08.448Z,1.90
2023-01-02T01:27:38.170Z,3.17
2023-01-02T01:30:08.858Z,2.70
2023-01-02T01:32:38.352Z,2.83
2023-01-02T01:35:08.427Z,2.37
2023-01-02T01:37:40.204Z,2.20
2023-01-02T01:40:10.045Z,2.00
2023-01-02T01:42:39.495Z,2.30
2023-01-02T01:45:16.275Z,2.40
2023-01-02T01:47:59.224Z,2.13
2023-01-02T01:50:33.655Z,2.30
2023-01-02T01:53:13.665Z,1.90
2023-01-02T01:55:59.797Z,1.97
2023-01-02T01:58:40.924Z,1.83
2023-01-02T02:01:13.281Z,1.83
2023-01-02T02:03:46.540Z,2.30
2023-01-02T02:06:18.810Z,2.87
2023-01-02T02:09:04.738Z,2.30
2023-01-02T02:11:34.467Z,2.03
2023-01-02T02:14:04.219Z,2.20
2023-01-02T02:17:09.696Z,1.83
2023-01-02T02:20:04.412Z,2.40
2023-01-02T02:22:55.748Z,1.47
2023-01-02T02:25:55.361Z,1.80
2023-01-02T02:29:08.637Z,1.67
2023-01-02T02:31:57.581Z,1.60
2023-01-02T02:34:57.157Z,1.50
2023-01-02T02:37:43.071Z,1.07
2023-01-02T02:41:05.399Z,0.83
2023-01-02T02:43:57.552Z,1.00
2023-01-02T02:46:55.151Z,0.70
2023-01-02T02:49:58.444Z,0.80
2023-01-02T02:52:59.397Z,0.80
2023-01-02T02:55:33.439Z,0.80
2023-01-02T02:58:03.263Z,0.90
2023-01-02T03:00:32.701Z,0.93
2023-01-02T03:03:02.313Z,1.00
2023-01-02T03:05:41.676Z,0.80
2023-01-02T03:08:28.157Z,1.10
2023-01-02T03:11:00.807Z,1.10
2023-01-02T03:13:55.428Z,1.00
2023-01-02T03:16:43.680Z,1.20
2023-01-02T03:19:23.430Z,1.07
2023-01-02T03:22:00.263Z,0.97
2023-01-02T03:24:31.822Z,0.67
2023-01-02T03:27:08.550Z,1.03
2023-01-02T03:29:54.355Z,0.90
2023-01-02T03:32:33.884Z,1.10
2023-01-02T03:35:07.955Z,1.10
2023-01-02T03:37:41.983Z,1.10
2023-01-02T03:40:16.091Z,1.17
2023-01-02T03:42:50.152Z,0.73
2023-01-02T03:45:31.071Z,1.70
2023-01-02T03:48:24.672Z,1.07
2023-01-02T03:50:59.116Z,0.90
2023-01-02T03:53:29.874Z,1.13
2023-01-02T03:56:29.807Z,1.03
2023-01-02T03:59:15.594Z,0.70
2023-01-02T04:01:58.517Z,0.80
2023-01-02T04:04:59.698Z,0.90
2023-01-02T04:07:54.343Z,0.83
2023-01-02T04:10:24.689Z,1.00
2023-01-02T04:12:58.883Z,1.00
2023-01-02T04:15:33.330Z,1.00
2023-01-02T04:18:13.412Z,0.80
2023-01-02T04:20:50.154Z,0.70
2023-01-02T04:23:30.087Z,1.10
2023-01-02T04:26:06.723Z,0.77
2023-01-02T04:28:37.505Z,1.13
2023-01-02T04:31:23.508Z,1.27
2023-01-02T04:34:00.643Z,1.20
2023-01-02T04:36:30.080Z,0.83
2023-01-02T04:38:59.543Z,0.60
2023-01-02T04:41:29.080Z,0.97
2023-01-02T04:43:59.803Z,0.90
2023-01-02T04:46:30.541Z,0.90
2023-01-02T04:49:00.145Z,0.60
2023-01-02T04:51:29.594Z,1.07
2023-01-02T04:53:59.056Z,0.80
2023-01-02T04:56:28.505Z,1.10
2023-01-02T04:58:57.965Z,0.83
2023-01-02T05:01:27.585Z,1.13
2023-01-02T05:03:57.191Z,1.10
2023-01-02T05:06:26.669Z,0.90
2023-01-02T05:08:56.122Z,0.87
2023-01-02T05:11:25.568Z,1.00
2023-01-02T05:13:55.048Z,1.40
2023-01-02T05:16:24.525Z,1.33
2023-01-02T05:18:54.478Z,1.20
2023-01-02T05:21:41.888Z,0.93
2023-01-02T05:24:11.867Z,0.90
2023-01-02T05:26:41.301Z,0.80
2023-01-02T05:29:10.758Z,1.30
2023-01-02T05:31:40.280Z,0.80
2023-01-02T05:34:12.816Z,0.83
2023-01-02T05:36:42.702Z,0.90
2023-01-02T05:39:14.457Z,0.87
2023-01-02T05:41:44.406Z,0.97
2023-01-02T05:44:13.926Z,0.90
2023-01-02T05:46:43.425Z,0.80
2023-01-02T05:49:13.324Z,0.90
2023-01-02T05:51:42.762Z,0.83
2023-01-02T05:54:12.238Z,0.70
2023-01-02T05:56:41.651Z,0.83
2023-01-02T05:59:11.542Z,0.93
2023-01-02T06:01:41.170Z,0.60
2023-01-02T06:04:14.654Z,0.70
2023-01-02T06:06:42.521Z,0.90
2023-01-02T06:09:15.546Z,0.70
2023-01-02T06:11:45.520Z,0.80
2023-01-02T06:14:14.977Z,0.70
2023-01-02T06:16:44.567Z,0.70
2023-01-02T06:19:14.034Z,0.73
2023-01-02T06:21:43.488Z,0.73
2023-01-02T06:24:12.958Z,0.60
2023-01-02T06:26:42.438Z,0.57
2023-01-02T06:29:12.334Z,0.70
2023-01-02T06:31:46.080Z,0.50
2023-01-02T06:34:13.223Z,1.03
2023-01-02T06:36:42.657Z,0.70
2023-01-02T06:39:12.105Z,0.70
2023-01-02T06:41:41.548Z,0.93
2023-01-02T06:44:14.210Z,0.80
2023-01-02T06:46:43.640Z,1.03
2023-01-02T06:49:13.089Z,0.70
2023-01-02T06:51:42.549Z,0.73
2023-01-02T06:54:12.219Z,0.60
2023-01-02T06:56:41.662Z,0.83
2023-01-02T06:59:11.875Z,1.00
2023-01-02T07:01:41.760Z,0.63
2023-01-02T07:04:17.327Z,0.70
2023-01-02T07:06:46.750Z,0.50
2023-01-02T07:09:16.273Z,0.70
2023-01-02T07:11:45.706Z,0.53
2023-01-02T07:14:15.163Z,0.93
2023-01-02T07:16:44.633Z,0.97
2023-01-02T07:19:14.133Z,1.00
2023-01-02T07:21:43.706Z,0.90
2023-01-02T07:24:17.553Z,0.83
2023-01-02T07:26:46.998Z,1.03
2023-01-02T07:29:16.447Z,0.70
2023-01-02T07:31:45.915Z,0.90
2023-01-02T07:34:15.412Z,0.80
2023-01-02T07:36:44.857Z,0.63
2023-01-02T07:39:14.313Z,0.87
2023-01-02T07:41:43.819Z,0.83
2023-01-02T07:44:13.292Z,0.70
2023-01-02T07:46:42.728Z,1.00
2023-01-02T07:49:13.808Z,0.73
2023-01-02T07:51:43.226Z,0.67
2023-01-02T07:54:12.884Z,0.70
2023-01-02T07:56:42.329Z,0.67
2023-01-02T07:59:11.844Z,0.57
2023-01-02T08:01:41.376Z,0.60
2023-01-02T08:04:11.037Z,0.70
2023-01-02T08:06:43.407Z,0.83
2023-01-02T08:09:13.484Z,0.57
2023-01-02T08:11:42.919Z,0.70
2023-01-02T08:14:13.978Z,0.63
2023-01-02T08:16:43.644Z,0.93
2023-01-02T08:19:13.122Z,0.73
2023-01-02T08:21:42.566Z,0.80
2023-01-02T08:24:12.010Z,0.70
2023-01-02T08:26:41.443Z,0.97
2023-01-02T08:29:10.990Z,0.87
2023-01-02T08:31:43.839Z,0.60
2023-01-02T08:34:13.700Z,0.70
2023-01-02T08:36:43.622Z,0.80
2023-01-02T08:39:13.106Z,0.70
2023-01-02T08:41:43.077Z,0.60
2023-01-02T08:44:12.547Z,0.70
2023-01-02T08:46:43.028Z,0.70
2023-01-02T08:49:13.599Z,0.80
2023-01-02T08:51:43.059Z,0.50
2023-01-02T08:54:12.522Z,0.60
2023-01-02T08:56:42.799Z,0.80
2023-01-02T08:59:13.933Z,0.80
2023-01-02T09:01:43.963Z,0.97
2023-01-02T09:04:13.905Z,0.83
2023-01-02T09:06:45.540Z,0.50
2023-01-02T09:09:18.275Z,0.60
2023-01-02T09:11:52.327Z,0.60
2023-01-02T09:14:23.751Z,0.80
2023-01-02T09:16:54.280Z,0.70
2023-01-02T09:19:26.639Z,0.60
2023-01-02T09:21:56.171Z,0.97
2023-01-02T09:24:25.626Z,0.80
2023-01-02T09:26:56.619Z,0.93
2023-01-02T09:29:26.121Z,1.30
2023-01-02T09:31:55.659Z,0.80
2023-01-02T09:34:25.412Z,1.03
2023-01-02T09:36:54.931Z,0.90
2023-01-02T09:39:30.398Z,0.80
2023-01-02T09:42:00.196Z,0.93
2023-01-02T09:44:52.327Z,0.77
2023-01-02T09:47:26.352Z,0.83
2023-01-02T09:50:00.662Z,1.30
2023-01-02T09:52:46.473Z,0.87
2023-01-02T09:55:20.572Z,0.60
2023-01-02T09:58:21.775Z,0.60
2023-01-02T10:00:53.033Z,0.50
2023-01-02T10:03:47.998Z,0.90
2023-01-02T10:06:31.264Z,0.90
2023-01-02T10:09:17.306Z,0.60
2023-01-02T10:11:51.351Z,0.87
2023-01-02T10:14:36.144Z,1.00
2023-01-02T10:17:02.803Z,0.80
2023-01-02T10:20:07.062Z,0.90
2023-01-02T10:22:44.085Z,1.00
2023-01-02T10:25:26.786Z,1.10
2023-01-02T10:28:09.464Z,0.70
2023-01-02T10:30:43.849Z,0.80
2023-01-02T10:33:17.906Z,0.70
2023-01-02T10:35:51.954Z,0.70
2023-01-02T10:38:22.559Z,0.70
2023-01-02T10:40:53.077Z,0.70
2023-01-02T10:43:22.922Z,0.80
2023-01-02T10:45:52.378Z,0.90
2023-01-02T10:48:26.009Z,0.80
2023-01-02T10:50:59.601Z,0.90
2023-01-02T10:53:37.482Z,0.60
2023-01-02T10:56:20.431Z,0.80
2023-01-02T10:58:53.395Z,0.70
2023-01-02T11:01:24.744Z,0.70
2023-01-02T11:04:01.767Z,1.10
2023-01-02T11:06:39.290Z,1.13
2023-01-02T11:09:25.553Z,0.77
2023-01-02T11:12:04.295Z,1.27
2023-01-02T11:14:36.669Z,1.20
2023-01-02T11:17:22.111Z,0.83
2023-01-02T11:19:57.693Z,1.07
2023-01-02T11:22:39.100Z,0.93
2023-01-02T11:25:12.799Z,1.20
2023-01-02T11:27:46.164Z,0.80
2023-01-02T11:30:49.151Z,1.20
2023-01-02T11:33:28.797Z,0.93
2023-01-02T11:36:08.018Z,0.70
2023-01-02T11:38:59.329Z,0.80
2023-01-02T11:41:59.353Z,0.80
2023-01-02T11:44:39.329Z,0.97
2023-01-02T11:47:13.465Z,0.70
2023-01-02T11:49:46.981Z,0.70
2023-01-02T11:52:23.845Z,1.00
2023-01-02T11:55:18.836Z,0.70
2023-01-02T11:58:04.467Z,0.77
2023-01-02T12:00:38.687Z,0.93
2023-01-02T12:03:21.360Z,0.60
2023-01-02T12:06:16.969Z,0.60
2023-01-02T12:09:14.584Z,0.63
2023-01-02T12:12:00.207Z,0.57
2023-01-02T12:14:59.450Z,0.50
2023-01-02T12:17:51.398Z,0.83
2023-01-02T12:20:31.184Z,0.57
2023-01-02T12:23:31.123Z,0.70
2023-01-02T12:26:20.609Z,0.77
2023-01-02T12:29:03.098Z,0.90
2023-01-02T12:32:01.325Z,0.60
2023-01-02T12:34:57.655Z,0.80
2023-01-02T12:37:40.208Z,0.80
2023-01-02T12:40:19.762Z,0.70
2023-01-02T12:43:05.169Z,0.67
2023-01-02T12:46:01.761Z,0.67
2023-01-02T12:49:09.058Z,0.83
2023-01-02T12:51:51.914Z,0.67
2023-01-02T12:54:31.589Z,0.50
2023-01-02T12:57:46.425Z,0.63
2023-01-02T13:00:42.514Z,0.67
2023-01-02T13:03:50.238Z,0.60
2023-01-02T13:06:46.682Z,0.80
2023-01-02T13:09:28.506Z,0.70
2023-01-02T13:12:02.572Z,0.60
2023-01-02T13:14:57.617Z,0.90
2023-01-02T13:17:52.635Z,0.60
2023-01-02T13:20:33.910Z,0.80
2023-01-02T13:23:33.600Z,0.93
2023-01-02T13:26:09.800Z,0.80
2023-01-02T13:29:06.106Z,0.73
2023-01-02T13:31:47.699Z,0.70
2023-01-02T13:34:27.390Z,1.00
2023-01-02T13:37:07.208Z,1.20
2023-01-02T13:39:43.994Z,0.63
2023-01-02T13:42:42.467Z,0.80
2023-01-02T13:45:36.119Z,0.70
2023-01-02T13:48:09.626Z,0.50
2023-01-02T13:50:41.497Z,0.83
2023-01-02T13:53:21.372Z,1.20
2023-01-02T13:56:10.848Z,0.97
2023-01-02T13:58:53.362Z,0.83
2023-01-02T14:01:30.514Z,1.70
2023-01-02T14:04:20.941Z,2.00
2023-01-02T14:06:54.097Z,1.97
2023-01-02T14:09:24.976Z,1.50
2023-01-02T14:11:59.153Z,1.53
2023-01-02T14:14:48.093Z,1.10
2023-01-02T14:17:32.184Z,0.90
2023-01-02T14:20:29.398Z,1.00
2023-01-02T14:23:03.558Z,0.90
2023-01-02T14:25:45.559Z,0.70
2023-01-02T14:28:25.732Z,0.90
2023-01-02T14:30:57.392Z,0.70
2023-01-02T14:33:34.410Z,1.00
2023-01-02T14:36:13.281Z,0.80
2023-01-02T14:38:56.153Z,0.70
2023-01-02T14:42:31.429Z,0.90
2023-01-02T14:45:04.306Z,0.60
2023-01-02T14:47:50.087Z,0.40
2023-01-02T14:50:24.193Z,0.60
2023-01-02T14:53:16.025Z,0.87
2023-01-02T14:55:47.891Z,0.60
2023-01-02T14:58:25.062Z,0.77
2023-01-02T15:01:03.946Z,1.00
2023-01-02T15:03:43.969Z,0.60
2023-01-02T15:06:37.684Z,0.43
2023-01-02T15:09:12.621Z,0.40
2023-01-02T15:12:12.688Z,0.43
2023-01-02T15:14:43.978Z,0.30
2023-01-02T15:17:23.754Z,0.57
2023-01-02T15:19:54.041Z,0.50
2023-01-02T15:22:28.355Z,0.40
2023-01-02T15:24:57.909Z,0.57
2023-01-02T15:27:34.114Z,0.57
2023-01-02T15:30:19.202Z,0.40
2023-01-02T15:32:51.594Z,0.40
2023-01-02T15:35:24.973Z,0.33
2023-01-02T15:37:55.027Z,0.43
2023-01-02T15:40:34.471Z,0.50
2023-01-02T15:43:31.107Z,0.40
2023-01-02T15:46:01.055Z,0.40
2023-01-02T15:48:31.002Z,0.50
2023-01-02T15:51:02.272Z,0.40
2023-01-02T15:53:40.979Z,0.60
2023-01-02T15:56:16.913Z,0.50
2023-01-02T15:58:51.309Z,0.60
2023-01-02T16:01:24.948Z,0.70
2023-01-02T16:04:01.908Z,0.50
2023-01-02T16:06:37.638Z,0.30
2023-01-02T16:09:11.828Z,0.40
2023-01-02T16:11:52.227Z,0.33
2023-01-02T16:14:44.959Z,0.40
2023-01-02T16:17:36.731Z,0.70
2023-01-02T16:20:35.834Z,0.50
2023-01-02T16:23:11.663Z,0.40
2023-01-02T16:25:50.016Z,0.30
2023-01-02T16:28:34.782Z,0.30
2023-01-02T16:31:14.003Z,0.40
2023-01-02T16:33:47.274Z,0.30
2023-01-02T16:36:26.557Z,0.40
2023-01-02T16:38:59.975Z,0.40
2023-01-02T16:41:41.593Z,0.40
2023-01-02T16:44:20.526Z,0.60
2023-01-02T16:46:52.014Z,0.40
2023-01-02T16:49:24.253Z,0.30
2023-01-02T16:51:56.285Z,0.30
2023-01-02T16:54:25.728Z,0.30
2023-01-02T16:56:55.203Z,0.30
2023-01-02T16:59:24.621Z,0.40
2023-01-02T17:01:54.245Z,0.40
2023-01-02T17:04:23.720Z,0.30
2023-01-02T17:06:54.816Z,0.40
2023-01-02T17:09:24.284Z,0.40
2023-01-02T17:12:03.067Z,0.20
2023-01-02T17:14:34.560Z,0.30
2023-01-02T17:17:04.045Z,0.33
2023-01-02T17:19:33.556Z,0.20
2023-01-02T17:22:03.630Z,0.20
2023-01-02T17:24:33.123Z,0.20
2023-01-02T17:27:02.797Z,0.30
2023-01-02T17:29:32.534Z,0.20
2023-01-02T17:32:02.072Z,0.20
2023-01-02T17:34:32.672Z,0.30
2023-01-02T17:37:02.139Z,0.13
2023-01-02T17:39:31.645Z,0.10
2023-01-02T17:42:01.127Z,0.27
2023-01-02T17:44:30.563Z,0.50
2023-01-02T17:47:30.463Z,0.40
2023-01-02T17:49:32.662Z,0.50
2023-01-02T17:52:02.140Z,0.30
2023-01-02T17:54:31.562Z,0.30
2023-01-02T17:57:01.499Z,0.17
2023-01-02T17:59:31.120Z,0.30
2023-01-02T18:02:03.822Z,0.25
2023-01-02T18:04:33.584Z,0.20
2023-01-02T18:07:03.210Z,0.10
2023-01-02T18:09:32.734Z,0.23
2023-01-02T18:12:02.176Z,0.20
2023-01-02T18:14:31.795Z,0.30
2023-01-02T18:17:05.034Z,0.30
2023-01-02T18:19:36.897Z,0.20
2023-01-02T18:22:18.735Z,0.30
2023-01-02T18:24:52.185Z,0.20
2023-01-02T18:27:35.033Z,0.10
2023-01-02T18:30:23.554Z,0.10
2023-01-02T18:33:00.141Z,0.20
2023-01-02T18:38:21.435Z,0.13
2023-01-02T18:40:52.537Z,0.20
2023-01-02T18:43:35.804Z,0.30
2023-01-02T18:46:18.600Z,0.10
2023-01-02T18:48:48.669Z,0.20
2023-01-02T18:51:22.694Z,0.20
2023-01-02T18:53:57.147Z,0.17
2023-01-02T18:56:31.576Z,0.20
2023-01-02T18:59:17.110Z,0.10
2023-01-02T19:01:54.849Z,0.17
2023-01-02T19:04:28.884Z,0.10
2023-01-02T19:07:02.895Z,0.20
2023-01-02T19:09:38.527Z,0.27
2023-01-02T19:12:44.898Z,0.20
2023-01-02T19:16:00.215Z,0.20
2023-01-02T19:18:50.778Z,0.30
2023-01-02T19:21:35.777Z,0.20
2023-01-02T19:24:21.237Z,0.20
2023-01-02T19:26:55.768Z,0.30
2023-01-02T19:29:33.922Z,0.20
2023-01-02T19:32:25.854Z,0.20
2023-01-02T19:34:59.327Z,0.10
2023-01-02T19:37:41.576Z,0.30
2023-01-02T19:40:19.693Z,0.23
2023-01-02T19:42:53.544Z,0.30
2023-01-02T19:45:29.316Z,0.40
2023-01-02T19:47:58.768Z,0.20
2023-01-02T19:50:29.012Z,0.20
2023-01-02T19:52:58.557Z,0.20
2023-01-02T19:55:27.989Z,0.23
2023-01-02T19:57:57.534Z,0.20
2023-01-02T20:00:27.155Z,0.20
2023-01-02T20:02:56.994Z,0.20
2023-01-02T20:05:28.592Z,0.30
2023-01-02T20:08:02.179Z,0.23
2023-01-02T20:10:31.638Z,0.20
2023-01-02T20:13:01.112Z,0.20
2023-01-02T20:15:30.590Z,0.20
2023-01-02T20:18:06.604Z,0.27
2023-01-02T20:20:34.058Z,0.20
2023-01-02T20:23:03.611Z,0.10
2023-01-02T20:25:33.026Z,0.20
2023-01-02T20:28:04.209Z,0.20
2023-01-02T20:30:33.758Z,0.10
2023-01-02T20:33:03.233Z,0.27
2023-01-02T20:35:32.683Z,0.30
2023-01-02T20:38:02.154Z,0.20
2023-01-02T20:40:31.611Z,0.13
2023-01-02T20:43:01.086Z,0.27
2023-01-02T20:45:30.607Z,0.30
2023-01-02T20:48:00.107Z,0.23
2023-01-02T20:50:29.604Z,0.20
2023-01-02T20:52:59.067Z,0.27
2023-01-02T20:55:28.545Z,0.20
2023-01-02T20:57:58.055Z,0.20
2023-01-02T21:00:28.563Z,0.10
2023-01-02T21:02:58.286Z,0.30
2023-01-02T21:05:28.079Z,0.20
2023-01-02T21:07:57.559Z,0.17
2023-01-02T21:10:27.062Z,0.20
2023-01-02T21:13:10.474Z,0.30
2023-01-02T21:15:45.002Z,0.10
2023-01-02T21:18:36.491Z,0.30
2023-01-02T21:21:10.951Z,0.30
2023-01-02T21:23:42.155Z,0.30
2023-01-02T21:26:16.808Z,0.20
2023-01-02T21:28:50.435Z,0.10
2023-01-02T21:31:21.855Z,0.20
2023-01-02T21:33:51.444Z,0.20
2023-01-02T21:36:20.893Z,0.20
2023-01-02T21:38:51.170Z,0.10
2023-01-02T21:41:39.032Z,0.20
2023-01-02T21:44:08.508Z,0.30
2023-01-02T21:46:38.035Z,0.30
2023-01-02T21:49:07.595Z,0.10
2023-01-02T21:51:37.345Z,0.20
2023-01-02T21:54:06.816Z,0.10
2023-01-02T21:56:36.269Z,0.20
2023-01-02T21:59:05.724Z,0.40
2023-01-02T22:01:35.416Z,0.23
2023-01-02T22:04:05.165Z,0.30
2023-01-02T22:06:34.639Z,0.10
2023-01-02T22:09:05.293Z,0.40
2023-01-02T22:11:52.690Z,0.50
2023-01-02T22:14:23.467Z,0.30
2023-01-02T22:16:53.167Z,0.20
2023-01-02T22:19:24.120Z,0.20
2023-01-02T22:21:54.697Z,0.20
2023-01-02T22:24:27.218Z,0.40
2023-01-02T22:27:00.661Z,0.30
2023-01-02T22:30:00.561Z,0.20
2023-01-02T22:32:03.910Z,0.30
2023-01-02T22:34:38.630Z,0.30
2023-01-02T22:37:08.310Z,0.20
2023-01-02T22:39:38.829Z,0.37
2023-01-02T22:42:59.133Z,0.40
2023-01-02T22:45:01.255Z,0.30
2023-01-02T22:47:35.389Z,0.30
2023-01-02T22:50:11.864Z,0.30
2023-01-02T22:52:38.085Z,0.30
2023-01-02T22:55:20.553Z,0.40
2023-01-02T22:57:51.773Z,0.37
2023-01-02T23:00:23.588Z,0.43
2023-01-02T23:02:53.072Z,0.40
2023-01-02T23:05:23.290Z,0.30
2023-01-02T23:07:52.817Z,0.50
2023-01-02T23:10:22.279Z,0.30
2023-01-02T23:12:51.747Z,0.40
2023-01-02T23:15:21.523Z,0.50
2023-01-02T23:18:08.779Z,0.50
2023-01-02T23:20:38.228Z,0.63
2023-01-02T23:23:07.693Z,0.40
2023-01-02T23:25:43.321Z,0.30
2023-01-02T23:28:31.915Z,0.60
2023-01-02T23:30:43.934Z,0.50
2023-01-02T23:33:13.411Z,0.80
2023-01-02T23:35:42.861Z,0.70
2023-01-02T23:38:12.431Z,0.40
2023-01-02T23:40:41.879Z,0.60
2023-01-02T23:43:11.347Z,0.50
2023-01-02T23:45:40.876Z,0.60
2023-01-02T23:48:10.375Z,0.67
2023-01-02T23:50:39.814Z,0.43
2023-01-02T23:53:09.576Z,0.40
2023-01-02T23:55:46.502Z,0.50
2023-01-02T23:58:15.959Z,0.40
